Wednesday, October 17, 2018, 4:44 AM EDT
Back to Local

KGKJ, Port Meadville Airport

Location: Meadville, PA, United States Lat: 41.633
Local Time: 4:44 AM EDT ( 8:44 GMT) Lon: -80.217
Time Zone: US/Eastern Elev: 1400 ft

Show me the last for .
Show Decoded

2018-10-17 03:53 METAR KGKJ 170753Z AUTO 22006G17KT 10SM FEW065 OVC110 06/02 A2999 RMK AO2 SLP159
                 T00560017 =
2018-10-17 02:53 METAR KGKJ 170653Z AUTO 22006KT 10SM OVC075 06/02 A3000 RMK AO2 SLP163 T00560017
                 =
2018-10-17 01:53 METAR KGKJ 170553Z AUTO 22006KT 10SM SCT075 05/02 A3001 RMK AO2 SLP169 T00500017
                 10067 20050 58005 =
2018-10-16 23:53 METAR KGKJ 170353Z AUTO 21009KT 10SM CLR 06/02 A3003 RMK AO2 SLP175 T00560017 =
2018-10-16 22:53 METAR KGKJ 170253Z AUTO 21009KT 10SM CLR 06/02 A3003 RMK AO2 SLP175 T00560017
                 53001 =
2018-10-16 21:53 METAR KGKJ 170153Z AUTO 21009KT 10SM CLR 06/01 A3002 RMK AO2 SLP174 T00610011 =
2018-10-16 20:53 METAR KGKJ 170053Z AUTO 21008KT 10SM CLR 06/01 A3002 RMK AO2 SLP175 T00610006 =
2018-10-16 19:53 METAR KGKJ 162353Z AUTO 20007KT 10SM CLR 06/01 A3003 RMK AO2 SLP177 T00610006
                 10100 20061 56007 =
2018-10-16 18:53 METAR KGKJ 162253Z AUTO 21007KT 10SM CLR 07/00 A3003 RMK AO2 SLP175 T00720000 =
2018-10-16 17:53 METAR KGKJ 162153Z AUTO 23008KT 10SM CLR 08/M01 A3003 RMK AO2 SLP177 T00831006 =
2018-10-16 16:53 METAR KGKJ 162053Z AUTO 23011G17KT 10SM CLR 09/M01 A3005 RMK AO2 SLP182
                 T00941006 56021 =
2018-10-16 15:53 METAR KGKJ 161953Z AUTO 22009G15KT 10SM CLR 10/M01 A3007 RMK AO2 SLP187
                 T01001006 =
2018-10-16 14:53 METAR KGKJ 161853Z AUTO 24010KT 10SM CLR 10/01 A3008 RMK AO2 SLP193 T01000006 =
2018-10-16 13:53 METAR KGKJ 161753Z AUTO 23009G17KT 200V260 10SM CLR 09/01 A3011 RMK AO2 SLP203
                 T00940011 10094 20028 58028 =
2018-10-16 12:53 METAR KGKJ 161653Z AUTO 23008G15KT 10SM FEW035 08/01 A3015 RMK AO2 SLP219
                 T00830006 =
2018-10-16 11:53 METAR KGKJ 161553Z AUTO 22007G17KT 10SM BKN031 06/01 A3018 RMK AO2 SLP228
                 T00610006 =
2018-10-16 10:53 METAR KGKJ 161453Z AUTO 22007KT 10SM BKN036 06/01 A3020 RMK AO2 SLP234 T00560006
                 50002 =
2018-10-16 09:53 METAR KGKJ 161353Z AUTO 23008KT 10SM OVC040 04/01 A3021 RMK AO2 SLP237 T00440006
                 =
2018-10-16 08:53 METAR KGKJ 161253Z AUTO 21006KT 10SM OVC037 03/02 A3021 RMK AO2 SLP238 T00280017
                 =
2018-10-16 07:53 METAR KGKJ 161153Z AUTO 20006KT 10SM OVC039 03/02 A3019 RMK AO2 SLP232 70014
                 T00280017 10039 20028 50003 =
2018-10-16 06:53 METAR KGKJ 161053Z AUTO 22005KT 10SM OVC037 03/02 A3020 RMK AO2 SLP233 T00330017
                 =
2018-10-16 05:53 METAR KGKJ 160953Z AUTO 24004KT 10SM OVC036 04/02 A3019 RMK AO2 SLP230 T00390017
                 =
2018-10-16 04:53 METAR KGKJ 160853Z AUTO 27004KT 10SM SCT027 OVC035 04/02 A3019 RMK AO2 SLP229
                 T00390017 52004 =

Support USWX by starting your Amazon purchase here.